Pinehill, New Mexico
Current Conditions -  °F | °C
As of 5:53 AM on Thursday 30 Oct 2014 (Local Time) from KGUP Reporting Station
Clear Clear  
Wind Chill: 31°   Ceiling: Unl
Heat Index: 31°   Visibility: 10mi
Dew Point: 17°   Wind: 0mph
Humidity: 57%   Direction: NA
Pressure: 30.35"   Gusts: NA
Location:  35.13°N, 108.5°W
Report Text: KGUP 301153Z AUTO 00000KT 10SM CLR M01/M08 A3035 RMK AO2 SLP217 T10061083 10050 21028 55000
Loading
Personal Weather Stations






























Interactive Weather Map
Tropical Storm Tracking
New forecast layout! Learn more

10-Day Weather Forecast

Advertisements
Track Severe Weather on mobile